createdAt,value
2019-04-24T00:01:19.133Z,64.00
2019-04-24T00:04:21.754Z,64.00
2019-04-24T00:07:19.577Z,64.00
2019-04-24T00:10:44.969Z,62.00
2019-04-24T00:13:50.956Z,64.00
2019-04-24T00:16:51.916Z,62.00
2019-04-24T00:19:43.684Z,62.00
2019-04-24T00:22:39.909Z,61.00
2019-04-24T00:25:49.780Z,61.00
2019-04-24T00:28:53.164Z,63.00
2019-04-24T00:31:56.401Z,63.00
2019-04-24T00:35:01.236Z,64.00
2019-04-24T00:38:10.583Z,67.00
2019-04-24T00:41:16.846Z,65.00
2019-04-24T00:47:37.072Z,66.00
2019-04-24T00:50:35.314Z,65.00
2019-04-24T00:56:19.642Z,65.00
2019-04-24T01:02:20.283Z,67.00
2019-04-24T01:08:28.484Z,66.00
2019-04-24T01:11:29.727Z,62.00
2019-04-24T01:14:46.971Z,62.00
2019-04-24T01:20:57.737Z,60.00
2019-04-24T01:24:01.853Z,61.00
2019-04-24T01:26:58.438Z,59.00
2019-04-24T01:30:25.285Z,59.00
2019-04-24T01:33:19.537Z,59.00
2019-04-24T01:39:12.361Z,61.00
2019-04-24T01:45:23.708Z,61.00
2019-04-24T01:57:35.426Z,59.00
2019-04-24T02:00:58.420Z,59.00
2019-04-24T02:03:41.712Z,59.00
2019-04-24T02:06:37.686Z,59.00
2019-04-24T02:10:12.459Z,59.00
2019-04-24T02:13:15.358Z,59.00
2019-04-24T02:16:00.804Z,59.00
2019-04-24T02:21:59.104Z,61.00
2019-04-24T02:25:12.935Z,60.00
2019-04-24T02:28:16.595Z,66.00
2019-04-24T02:31:25.511Z,62.00
2019-04-24T02:34:20.705Z,60.00
2019-04-24T02:40:37.600Z,66.00
2019-04-24T02:43:36.689Z,63.00
2019-04-24T02:46:38.674Z,64.00
2019-04-24T02:55:33.160Z,64.00
2019-04-24T03:02:13.336Z,66.00
2019-04-24T03:26:51.915Z,60.00
2019-04-24T03:29:27.005Z,61.00
2019-04-24T03:33:00.277Z,60.00
2019-04-24T03:38:52.222Z,60.00
2019-04-24T03:42:19.335Z,60.00
2019-04-24T03:54:10.537Z,59.00
2019-04-24T03:56:56.299Z,59.00
2019-04-24T04:00:22.337Z,60.00
2019-04-24T04:05:40.001Z,60.00
2019-04-24T04:09:41.552Z,60.00
2019-04-24T04:21:33.357Z,60.00
2019-04-24T04:36:46.184Z,61.00
2019-04-24T04:39:48.756Z,60.00
2019-04-24T04:51:56.866Z,60.00
2019-04-24T04:55:53.736Z,60.00
2019-04-24T05:04:19.636Z,60.00
2019-04-24T05:13:07.870Z,61.00
2019-04-24T05:19:27.949Z,60.00
2019-04-24T05:22:24.075Z,60.00
2019-04-24T05:25:38.800Z,60.00
2019-04-24T05:28:46.940Z,60.00
2019-04-24T05:31:48.902Z,60.00
2019-04-24T05:34:49.231Z,62.00
2019-04-24T05:40:46.743Z,60.00
2019-04-24T05:46:56.279Z,60.00
2019-04-24T05:53:12.035Z,60.00
2019-04-24T05:56:03.769Z,60.00
2019-04-24T06:02:25.973Z,59.00
2019-04-24T06:05:23.376Z,59.00
2019-04-24T06:08:20.319Z,59.00
2019-04-24T06:11:40.501Z,63.00
2019-04-24T06:14:36.489Z,60.00
2019-04-24T06:17:31.335Z,60.00
2019-04-24T06:24:05.415Z,64.00
2019-04-24T06:26:52.365Z,60.00
2019-04-24T06:30:03.595Z,60.00
2019-04-24T06:35:57.877Z,59.00
2019-04-24T06:39:03.527Z,61.00
2019-04-24T06:41:57.742Z,60.00
2019-04-24T06:54:11.295Z,62.00
2019-04-24T07:03:28.793Z,59.00
2019-04-24T07:09:31.088Z,62.00
2019-04-24T07:12:32.159Z,64.00
2019-04-24T07:15:47.153Z,61.00
2019-04-24T07:21:48.804Z,64.00
2019-04-24T07:31:08.845Z,65.00
2019-04-24T07:34:16.275Z,64.00
2019-04-24T07:36:55.524Z,60.00
2019-04-24T07:39:57.461Z,61.00
2019-04-24T07:43:15.313Z,61.00
2019-04-24T07:46:04.284Z,64.00
2019-04-24T07:49:12.230Z,61.00
2019-04-24T07:52:24.988Z,63.00
2019-04-24T07:55:28.868Z,64.00
2019-04-24T07:58:32.894Z,62.00
2019-04-24T08:01:34.587Z,61.00
2019-04-24T08:04:50.163Z,60.00
2019-04-24T08:07:39.927Z,64.00
2019-04-24T08:10:41.632Z,61.00
2019-04-24T08:13:46.935Z,61.00
2019-04-24T08:16:47.538Z,62.00
2019-04-24T08:20:15.763Z,60.00
2019-04-24T08:28:54.888Z,61.00
2019-04-24T08:32:11.340Z,62.00
2019-04-24T08:38:20.627Z,64.00
2019-04-24T08:41:22.003Z,62.00
2019-04-24T08:47:37.278Z,60.00
2019-04-24T08:50:54.040Z,60.00
2019-04-24T08:53:21.982Z,65.00
2019-04-24T08:56:31.641Z,61.00
2019-04-24T09:02:47.152Z,64.00
2019-04-24T09:05:51.477Z,64.00
2019-04-24T09:08:59.229Z,63.00
2019-04-24T09:11:51.375Z,64.00
2019-04-24T09:14:42.072Z,65.00
2019-04-24T09:18:06.133Z,61.00
2019-04-24T09:21:02.563Z,59.00
2019-04-24T09:27:28.583Z,59.00
2019-04-24T09:33:17.272Z,61.00
2019-04-24T09:36:38.655Z,62.00
2019-04-24T09:39:22.287Z,62.00
2019-04-24T09:42:49.607Z,59.00
2019-04-24T09:45:25.749Z,63.00
2019-04-24T09:57:50.719Z,65.00
2019-04-24T10:04:04.737Z,64.00
2019-04-24T10:10:16.838Z,65.00
2019-04-24T10:15:52.287Z,62.00
2019-04-24T10:19:15.379Z,63.00
2019-04-24T10:21:58.681Z,67.00
2019-04-24T10:25:17.365Z,66.00
2019-04-24T10:28:16.090Z,59.00
2019-04-24T10:31:18.686Z,68.00
2019-04-24T10:34:20.931Z,64.00
2019-04-24T10:43:36.349Z,62.00
2019-04-24T10:46:52.667Z,60.00
2019-04-24T10:52:45.376Z,58.00
2019-04-24T10:55:53.643Z,63.00
2019-04-24T10:58:48.709Z,60.00
2019-04-24T11:02:17.409Z,59.00
2019-04-24T11:05:29.657Z,59.00
2019-04-24T11:08:11.083Z,63.00
2019-04-24T11:11:01.003Z,60.00
2019-04-24T11:14:17.162Z,64.00
2019-04-24T11:17:23.980Z,63.00
2019-04-24T11:20:26.193Z,66.00
2019-04-24T11:23:27.635Z,59.00
2019-04-24T11:29:26.687Z,64.00
2019-04-24T11:35:28.460Z,60.00
2019-04-24T11:41:47.723Z,60.00
2019-04-24T11:44:52.267Z,65.00
2019-04-24T11:48:08.545Z,58.00
2019-04-24T11:51:22.867Z,60.00
2019-04-24T11:53:57.214Z,60.00
2019-04-24T11:59:48.759Z,59.00
2019-04-24T12:02:56.527Z,61.00
2019-04-24T12:06:04.464Z,59.00
2019-04-24T12:12:07.130Z,59.00
2019-04-24T12:15:23.566Z,60.00
2019-04-24T12:18:25.604Z,59.00
2019-04-24T12:21:31.406Z,64.00
2019-04-24T12:24:23.194Z,64.00
2019-04-24T12:27:47.637Z,61.00
2019-04-24T12:30:49.654Z,59.00
2019-04-24T12:33:43.978Z,59.00
2019-04-24T12:36:51.753Z,60.00
2019-04-24T12:40:31.525Z,60.00
2019-04-24T12:42:44.462Z,61.00
2019-04-24T12:51:57.120Z,63.00
2019-04-24T12:55:01.780Z,62.00
2019-04-24T12:58:36.424Z,60.00
2019-04-24T13:01:16.549Z,64.00
2019-04-24T13:04:31.425Z,60.00
2019-04-24T13:07:15.363Z,61.00
2019-04-24T13:10:43.428Z,63.00
2019-04-24T13:13:24.926Z,62.00
2019-04-24T13:16:39.091Z,60.00
2019-04-24T13:22:17.348Z,66.00
2019-04-24T13:25:56.642Z,67.00
2019-04-24T13:29:02.341Z,64.00
2019-04-24T13:31:54.117Z,64.00
2019-04-24T13:35:04.354Z,65.00
2019-04-24T13:40:57.839Z,64.00
2019-04-24T13:44:10.212Z,65.00
2019-04-24T13:47:09.436Z,63.00
2019-04-24T13:50:18.160Z,65.00
2019-04-24T13:56:03.069Z,65.00
2019-04-24T14:02:25.123Z,63.00
2019-04-24T14:05:25.018Z,65.00
2019-04-24T14:08:40.795Z,65.00
2019-04-24T14:14:55.987Z,65.00
2019-04-24T14:17:52.947Z,65.00
2019-04-24T14:26:59.713Z,64.00
2019-04-24T14:30:03.546Z,61.00
2019-04-24T14:33:06.036Z,64.00
2019-04-24T14:36:16.625Z,65.00
2019-04-24T14:39:20.023Z,66.00
2019-04-24T14:42:18.154Z,64.00
2019-04-24T14:48:18.493Z,64.00
2019-04-24T14:51:28.149Z,64.00
2019-04-24T14:57:33.708Z,63.00
2019-04-24T15:03:37.786Z,63.00
2019-04-24T15:06:51.424Z,66.00
2019-04-24T15:09:52.680Z,66.00
2019-04-24T15:12:47.227Z,67.00
2019-04-24T15:16:11.042Z,66.00
2019-04-24T15:19:06.819Z,66.00
2019-04-24T15:22:06.712Z,64.00
2019-04-24T15:28:10.496Z,62.00
2019-04-24T15:34:17.900Z,65.00
2019-04-24T15:37:26.706Z,66.00
2019-04-24T15:46:16.891Z,65.00
2019-04-24T15:49:24.642Z,62.00
2019-04-24T15:52:02.340Z,61.00
2019-04-24T15:55:03.632Z,63.00
2019-04-24T15:58:15.650Z,62.00
2019-04-24T16:01:39.936Z,65.00
2019-04-24T16:04:52.031Z,66.00
2019-04-24T16:07:21.364Z,63.00
2019-04-24T16:10:25.805Z,67.00
2019-04-24T16:13:35.108Z,67.00
2019-04-24T16:17:01.860Z,65.00
2019-04-24T16:20:08.834Z,66.00
2019-04-24T16:29:10.736Z,63.00
2019-04-24T16:32:34.113Z,62.00
2019-04-24T16:41:33.679Z,63.00
2019-04-24T16:44:47.824Z,66.00
2019-04-24T16:50:44.048Z,61.00
2019-04-24T16:53:49.983Z,60.00
2019-04-24T16:59:49.331Z,60.00
2019-04-24T17:02:54.024Z,60.00
2019-04-24T17:09:00.259Z,60.00
2019-04-24T17:12:02.190Z,59.00
2019-04-24T17:15:23.013Z,58.00
2019-04-24T17:18:29.758Z,58.00
2019-04-24T17:21:31.619Z,59.00
2019-04-24T17:24:13.653Z,59.00
2019-04-24T17:27:22.381Z,63.00
2019-04-24T17:33:13.968Z,58.00
2019-04-24T17:36:19.612Z,58.00
2019-04-24T17:39:01.226Z,58.00
2019-04-24T17:42:13.776Z,60.00
2019-04-24T17:45:43.184Z,59.00
2019-04-24T17:48:47.291Z,63.00
2019-04-24T17:51:52.227Z,59.00
2019-04-24T17:54:52.412Z,59.00
2019-04-24T18:00:32.375Z,58.00
2019-04-24T18:03:36.801Z,59.00
2019-04-24T18:06:42.331Z,58.00
2019-04-24T18:09:45.697Z,59.00
2019-04-24T18:12:39.059Z,59.00
2019-04-24T18:15:43.470Z,58.00
2019-04-24T18:18:47.909Z,59.00
2019-04-24T18:21:52.429Z,60.00
2019-04-24T18:24:56.729Z,63.00
2019-04-24T18:28:01.494Z,61.00
2019-04-24T18:31:05.571Z,60.00
2019-04-24T18:34:12.989Z,61.00
2019-04-24T18:37:14.426Z,62.00
2019-04-24T18:40:18.836Z,61.00
2019-04-24T18:43:23.271Z,64.00
2019-04-24T18:46:27.680Z,59.00
2019-04-24T18:49:32.301Z,62.00
2019-04-24T18:52:25.455Z,63.00
2019-04-24T18:55:29.865Z,62.00
2019-04-24T18:58:34.298Z,62.00
2019-04-24T19:01:38.715Z,65.00
2019-04-24T19:04:43.145Z,95.00
2019-04-24T19:07:47.618Z,92.00
2019-04-24T19:10:51.996Z,110.00
2019-04-24T19:13:56.426Z,92.00
2019-04-24T19:17:02.349Z,92.00
2019-04-24T19:20:05.249Z,69.00
2019-04-24T19:23:10.437Z,77.00
2019-04-24T19:26:14.093Z,90.00
2019-04-24T19:29:18.511Z,104.00
2019-04-24T19:32:12.760Z,66.00
2019-04-24T19:35:16.263Z,91.00
2019-04-24T19:38:21.381Z,94.00
2019-04-24T19:41:25.086Z,91.00
2019-04-24T19:44:31.314Z,134.00
2019-04-24T19:47:38.662Z,78.00
2019-04-24T19:50:38.342Z,104.00
2019-04-24T19:53:43.766Z,96.00
2019-04-24T19:56:47.206Z,126.00
2019-04-24T19:59:51.871Z,64.00
2019-04-24T20:02:44.953Z,94.00
2019-04-24T20:05:49.369Z,98.00
2019-04-24T20:08:53.786Z,68.00
2019-04-24T20:11:58.186Z,94.00
2019-04-24T20:15:03.813Z,91.00
2019-04-24T20:18:07.003Z,80.00
2019-04-24T20:21:12.751Z,71.00
2019-04-24T20:24:15.849Z,92.00
2019-04-24T20:27:20.250Z,65.00
2019-04-24T20:30:24.659Z,66.00
2019-04-24T20:33:29.054Z,78.00
2019-04-24T20:36:33.461Z,71.00
2019-04-24T20:39:37.886Z,68.00
2019-04-24T20:42:32.261Z,73.00
2019-04-24T20:45:35.587Z,60.00
2019-04-24T20:48:39.984Z,65.00
2019-04-24T20:51:44.386Z,62.00
2019-04-24T20:54:48.803Z,77.00
2019-04-24T20:57:53.192Z,76.00
2019-04-24T21:00:57.610Z,62.00
2019-04-24T21:04:02.090Z,69.00
2019-04-24T21:07:06.417Z,62.00
2019-04-24T21:10:11.954Z,60.00
2019-04-24T21:13:15.221Z,62.00
2019-04-24T21:16:20.514Z,60.00
2019-04-24T21:19:24.815Z,60.00
2019-04-24T21:22:17.360Z,62.00
2019-04-24T21:25:23.107Z,60.00
2019-04-24T21:28:26.635Z,59.00
2019-04-24T21:31:30.573Z,63.00
2019-04-24T21:34:34.967Z,60.00
2019-04-24T21:37:39.384Z,59.00
2019-04-24T21:40:43.786Z,59.00
2019-04-24T21:43:48.201Z,59.00
2019-04-24T21:46:52.609Z,59.00
2019-04-24T21:49:56.998Z,59.00
2019-04-24T21:52:51.887Z,59.00
2019-04-24T21:55:54.733Z,59.00
2019-04-24T21:58:59.145Z,59.00
2019-04-24T22:02:03.555Z,59.00
2019-04-24T22:05:07.944Z,59.00
2019-04-24T22:08:12.357Z,61.00
2019-04-24T22:11:16.751Z,59.00
2019-04-24T22:14:22.161Z,59.00
2019-04-24T22:17:25.810Z,59.00
2019-04-24T22:20:31.692Z,59.00
2019-04-24T22:23:34.363Z,59.00
2019-04-24T22:26:38.762Z,59.00
2019-04-24T22:29:43.164Z,59.00
2019-04-24T22:32:36.847Z,59.00
2019-04-24T22:35:41.995Z,59.00
2019-04-24T22:38:45.317Z,59.00
2019-04-24T22:41:49.708Z,59.00
2019-04-24T22:44:54.120Z,59.00
2019-04-24T22:47:58.501Z,59.00
2019-04-24T22:51:02.911Z,59.00
2019-04-24T22:54:07.317Z,59.00
2019-04-24T22:57:11.709Z,59.00
2019-04-24T23:00:16.125Z,59.00
2019-04-24T23:03:20.511Z,59.00
2019-04-24T23:06:24.923Z,59.00
2019-04-24T23:09:29.330Z,59.00
2019-04-24T23:12:22.646Z,59.00
2019-04-24T23:15:27.056Z,58.00
2019-04-24T23:18:34.173Z,58.00
2019-04-24T23:21:38.883Z,59.00
2019-04-24T23:24:48.079Z,58.00
2019-04-24T23:27:44.656Z,59.00
2019-04-24T23:30:49.066Z,58.00
2019-04-24T23:33:53.449Z,59.00
2019-04-24T23:36:57.858Z,58.00
2019-04-24T23:40:02.261Z,58.00
2019-04-24T23:43:06.666Z,58.00
2019-04-24T23:46:11.849Z,58.00
2019-04-24T23:49:15.447Z,58.00
2019-04-24T23:52:08.766Z,58.00
2019-04-24T23:55:13.176Z,58.00
2019-04-24T23:58:17.556Z,58.00
